sensor_id;sensor_type;location;lat;lon;timestamp;P1;durP1;ratioP1;P2;durP2;ratioP2
14738;SDS011;7461;52.440;13.540;2023-03-23T00:00:52;3.55;;;2.78;;
14738;SDS011;7461;52.440;13.540;2023-03-23T00:03:20;3.58;;;3.28;;
14738;SDS011;7461;52.440;13.540;2023-03-23T00:05:50;2.75;;;2.55;;
14738;SDS011;7461;52.440;13.540;2023-03-23T00:08:19;2.40;;;2.30;;
14738;SDS011;7461;52.440;13.540;2023-03-23T00:10:49;3.42;;;2.15;;
14738;SDS011;7461;52.440;13.540;2023-03-23T00:13:17;2.20;;;2.10;;
14738;SDS011;7461;52.440;13.540;2023-03-23T00:15:45;2.75;;;2.17;;
14738;SDS011;7461;52.440;13.540;2023-03-23T00:18:14;4.05;;;2.88;;
14738;SDS011;7461;52.440;13.540;2023-03-23T00:20:47;3.10;;;2.90;;
14738;SDS011;7461;52.440;13.540;2023-03-23T00:23:14;2.42;;;2.33;;
14738;SDS011;7461;52.440;13.540;2023-03-23T00:25:46;2.50;;;2.40;;
14738;SDS011;7461;52.440;13.540;2023-03-23T00:28:14;3.10;;;2.70;;
14738;SDS011;7461;52.440;13.540;2023-03-23T00:30:41;3.80;;;3.22;;
14738;SDS011;7461;52.440;13.540;2023-03-23T00:33:10;2.53;;;2.33;;
14738;SDS011;7461;52.440;13.540;2023-03-23T00:35:39;2.55;;;2.35;;
14738;SDS011;7461;52.440;13.540;2023-03-23T00:38:06;2.45;;;2.30;;
14738;SDS011;7461;52.440;13.540;2023-03-23T00:40:34;4.13;;;2.63;;
14738;SDS011;7461;52.440;13.540;2023-03-23T00:43:03;3.83;;;2.60;;
14738;SDS011;7461;52.440;13.540;2023-03-23T00:45:30;2.80;;;2.15;;
14738;SDS011;7461;52.440;13.540;2023-03-23T00:48:00;4.25;;;2.20;;
14738;SDS011;7461;52.440;13.540;2023-03-23T00:50:29;3.03;;;2.80;;
14738;SDS011;7461;52.440;13.540;2023-03-23T00:52:57;3.00;;;2.80;;
14738;SDS011;7461;52.440;13.540;2023-03-23T00:55:24;2.97;;;2.65;;
14738;SDS011;7461;52.440;13.540;2023-03-23T00:57:55;3.53;;;3.25;;
14738;SDS011;7461;52.440;13.540;2023-03-23T01:00:24;4.00;;;2.70;;
14738;SDS011;7461;52.440;13.540;2023-03-23T01:02:52;2.90;;;2.70;;
14738;SDS011;7461;52.440;13.540;2023-03-23T01:05:19;3.05;;;2.88;;
14738;SDS011;7461;52.440;13.540;2023-03-23T01:07:46;2.67;;;2.47;;
14738;SDS011;7461;52.440;13.540;2023-03-23T01:10:13;2.25;;;2.15;;
14738;SDS011;7461;52.440;13.540;2023-03-23T01:12:43;2.85;;;2.65;;
14738;SDS011;7461;52.440;13.540;2023-03-23T01:15:14;2.85;;;2.60;;
14738;SDS011;7461;52.440;13.540;2023-03-23T01:17:44;3.35;;;3.05;;
14738;SDS011;7461;52.440;13.540;2023-03-23T01:20:11;4.57;;;3.13;;
14738;SDS011;7461;52.440;13.540;2023-03-23T01:22:40;2.88;;;2.67;;
14738;SDS011;7461;52.440;13.540;2023-03-23T01:25:08;3.20;;;2.70;;
14738;SDS011;7461;52.440;13.540;2023-03-23T01:27:38;2.38;;;2.28;;
14738;SDS011;7461;52.440;13.540;2023-03-23T01:30:06;3.05;;;2.55;;
14738;SDS011;7461;52.440;13.540;2023-03-23T01:32:35;3.22;;;2.92;;
14738;SDS011;7461;52.440;13.540;2023-03-23T01:35:03;2.45;;;2.25;;
14738;SDS011;7461;52.440;13.540;2023-03-23T01:37:31;2.85;;;2.42;;
14738;SDS011;7461;52.440;13.540;2023-03-23T01:39:58;2.80;;;2.30;;
14738;SDS011;7461;52.440;13.540;2023-03-23T01:42:29;3.00;;;2.80;;
14738;SDS011;7461;52.440;13.540;2023-03-23T01:47:50;3.22;;;3.03;;
14738;SDS011;7461;52.440;13.540;2023-03-23T01:50:22;2.42;;;2.30;;
14738;SDS011;7461;52.440;13.540;2023-03-23T01:52:51;3.00;;;2.80;;
14738;SDS011;7461;52.440;13.540;2023-03-23T01:55:21;2.97;;;2.78;;
14738;SDS011;7461;52.440;13.540;2023-03-23T01:57:50;2.50;;;2.40;;
14738;SDS011;7461;52.440;13.540;2023-03-23T02:00:17;2.80;;;2.53;;
14738;SDS011;7461;52.440;13.540;2023-03-23T02:02:45;2.38;;;2.28;;
14738;SDS011;7461;52.440;13.540;2023-03-23T02:05:17;3.47;;;3.28;;
14738;SDS011;7461;52.440;13.540;2023-03-23T02:07:49;2.97;;;2.72;;
14738;SDS011;7461;52.440;13.540;2023-03-23T02:10:17;2.17;;;2.08;;
14738;SDS011;7461;52.440;13.540;2023-03-23T02:12:44;4.30;;;2.13;;
14738;SDS011;7461;52.440;13.540;2023-03-23T02:15:11;3.50;;;3.20;;
14738;SDS011;7461;52.440;13.540;2023-03-23T02:17:39;3.75;;;2.95;;
14738;SDS011;7461;52.440;13.540;2023-03-23T02:23:14;2.78;;;2.53;;
14738;SDS011;7461;52.440;13.540;2023-03-23T02:25:57;3.20;;;2.92;;
14738;SDS011;7461;52.440;13.540;2023-03-23T02:28:44;3.33;;;3.13;;
14738;SDS011;7461;52.440;13.540;2023-03-23T02:31:39;3.38;;;2.53;;
14738;SDS011;7461;52.440;13.540;2023-03-23T02:34:22;2.22;;;2.13;;
14738;SDS011;7461;52.440;13.540;2023-03-23T02:36:54;2.70;;;2.50;;
14738;SDS011;7461;52.440;13.540;2023-03-23T02:39:26;2.45;;;2.25;;
14738;SDS011;7461;52.440;13.540;2023-03-23T02:42:01;4.78;;;2.67;;
14738;SDS011;7461;52.440;13.540;2023-03-23T02:44:32;2.25;;;2.15;;
14738;SDS011;7461;52.440;13.540;2023-03-23T02:47:03;2.90;;;2.70;;
14738;SDS011;7461;52.440;13.540;2023-03-23T02:49:36;3.17;;;2.70;;
14738;SDS011;7461;52.440;13.540;2023-03-23T02:52:07;2.22;;;2.05;;
14738;SDS011;7461;52.440;13.540;2023-03-23T02:54:40;3.53;;;2.65;;
14738;SDS011;7461;52.440;13.540;2023-03-23T02:57:09;2.17;;;2.08;;
14738;SDS011;7461;52.440;13.540;2023-03-23T02:59:36;4.60;;;2.97;;
14738;SDS011;7461;52.440;13.540;2023-03-23T03:02:05;2.53;;;2.33;;
14738;SDS011;7461;52.440;13.540;2023-03-23T03:04:37;2.45;;;2.33;;
14738;SDS011;7461;52.440;13.540;2023-03-23T03:07:10;2.85;;;2.53;;
14738;SDS011;7461;52.440;13.540;2023-03-23T03:09:50;2.25;;;2.10;;
14738;SDS011;7461;52.440;13.540;2023-03-23T03:12:24;3.00;;;2.75;;
14738;SDS011;7461;52.440;13.540;2023-03-23T03:14:58;3.58;;;3.13;;
14738;SDS011;7461;52.440;13.540;2023-03-23T03:17:35;2.20;;;1.98;;
14738;SDS011;7461;52.440;13.540;2023-03-23T03:20:09;3.50;;;3.22;;
14738;SDS011;7461;52.440;13.540;2023-03-23T03:22:39;2.15;;;2.05;;
14738;SDS011;7461;52.440;13.540;2023-03-23T03:25:10;2.88;;;2.63;;
14738;SDS011;7461;52.440;13.540;2023-03-23T03:27:40;2.67;;;2.50;;
14738;SDS011;7461;52.440;13.540;2023-03-23T03:30:11;2.40;;;2.20;;
14738;SDS011;7461;52.440;13.540;2023-03-23T03:32:43;2.17;;;2.08;;
14738;SDS011;7461;52.440;13.540;2023-03-23T03:35:15;2.80;;;2.15;;
14738;SDS011;7461;52.440;13.540;2023-03-23T03:37:42;2.17;;;2.00;;
14738;SDS011;7461;52.440;13.540;2023-03-23T03:40:12;3.03;;;2.83;;
14738;SDS011;7461;52.440;13.540;2023-03-23T03:42:41;2.10;;;2.00;;
14738;SDS011;7461;52.440;13.540;2023-03-23T03:45:10;3.00;;;2.70;;
14738;SDS011;7461;52.440;13.540;2023-03-23T03:47:39;3.00;;;2.15;;
14738;SDS011;7461;52.440;13.540;2023-03-23T03:50:07;2.42;;;2.33;;
14738;SDS011;7461;52.440;13.540;2023-03-23T03:52:36;1.95;;;1.85;;
14738;SDS011;7461;52.440;13.540;2023-03-23T03:55:05;3.65;;;1.90;;
14738;SDS011;7461;52.440;13.540;2023-03-23T03:57:33;2.42;;;2.25;;
14738;SDS011;7461;52.440;13.540;2023-03-23T04:00:00;2.80;;;2.60;;
14738;SDS011;7461;52.440;13.540;2023-03-23T04:02:37;2.75;;;2.55;;
14738;SDS011;7461;52.440;13.540;2023-03-23T04:05:05;2.70;;;2.60;;
14738;SDS011;7461;52.440;13.540;2023-03-23T04:07:35;2.97;;;2.67;;
14738;SDS011;7461;52.440;13.540;2023-03-23T04:10:04;3.83;;;2.47;;
14738;SDS011;7461;52.440;13.540;2023-03-23T04:12:33;2.40;;;2.30;;
14738;SDS011;7461;52.440;13.540;2023-03-23T04:15:00;2.42;;;2.33;;
14738;SDS011;7461;52.440;13.540;2023-03-23T04:17:28;2.70;;;2.30;;
14738;SDS011;7461;52.440;13.540;2023-03-23T04:19:55;2.05;;;1.67;;
14738;SDS011;7461;52.440;13.540;2023-03-23T04:22:24;3.08;;;2.90;;
14738;SDS011;7461;52.440;13.540;2023-03-23T04:24:57;2.90;;;2.70;;
14738;SDS011;7461;52.440;13.540;2023-03-23T04:27:25;2.90;;;2.63;;
14738;SDS011;7461;52.440;13.540;2023-03-23T04:29:53;4.00;;;2.78;;
14738;SDS011;7461;52.440;13.540;2023-03-23T04:32:21;2.15;;;1.95;;
14738;SDS011;7461;52.440;13.540;2023-03-23T04:34:50;2.65;;;2.45;;
14738;SDS011;7461;52.440;13.540;2023-03-23T04:37:17;2.28;;;2.17;;
14738;SDS011;7461;52.440;13.540;2023-03-23T04:39:44;2.40;;;2.30;;
14738;SDS011;7461;52.440;13.540;2023-03-23T04:42:12;2.20;;;2.10;;
14738;SDS011;7461;52.440;13.540;2023-03-23T04:44:40;2.30;;;2.10;;
14738;SDS011;7461;52.440;13.540;2023-03-23T04:47:08;2.30;;;2.20;;
14738;SDS011;7461;52.440;13.540;2023-03-23T04:49:35;2.65;;;2.55;;
14738;SDS011;7461;52.440;13.540;2023-03-23T04:52:03;2.88;;;2.67;;
14738;SDS011;7461;52.440;13.540;2023-03-23T04:54:30;2.30;;;2.20;;
14738;SDS011;7461;52.440;13.540;2023-03-23T04:56:57;2.17;;;2.08;;
14738;SDS011;7461;52.440;13.540;2023-03-23T04:59:26;2.33;;;2.15;;
14738;SDS011;7461;52.440;13.540;2023-03-23T05:01:53;2.42;;;2.22;;
14738;SDS011;7461;52.440;13.540;2023-03-23T05:04:23;2.65;;;2.33;;
14738;SDS011;7461;52.440;13.540;2023-03-23T05:06:50;3.53;;;3.22;;
14738;SDS011;7461;52.440;13.540;2023-03-23T05:09:17;2.75;;;2.47;;
14738;SDS011;7461;52.440;13.540;2023-03-23T05:11:45;6.32;;;2.88;;
14738;SDS011;7461;52.440;13.540;2023-03-23T05:14:12;3.10;;;2.20;;
14738;SDS011;7461;52.440;13.540;2023-03-23T05:16:40;4.47;;;2.50;;
14738;SDS011;7461;52.440;13.540;2023-03-23T05:19:07;3.97;;;2.85;;
14738;SDS011;7461;52.440;13.540;2023-03-23T05:21:34;1.92;;;1.83;;
14738;SDS011;7461;52.440;13.540;2023-03-23T05:24:02;2.72;;;2.53;;
14738;SDS011;7461;52.440;13.540;2023-03-23T05:26:29;2.15;;;2.05;;
14738;SDS011;7461;52.440;13.540;2023-03-23T05:28:57;2.83;;;2.60;;
14738;SDS011;7461;52.440;13.540;2023-03-23T05:31:24;2.70;;;2.50;;
14738;SDS011;7461;52.440;13.540;2023-03-23T05:33:52;4.00;;;2.53;;
14738;SDS011;7461;52.440;13.540;2023-03-23T05:36:19;3.85;;;3.47;;
14738;SDS011;7461;52.440;13.540;2023-03-23T05:38:47;2.53;;;2.33;;
14738;SDS011;7461;52.440;13.540;2023-03-23T05:41:15;2.90;;;2.70;;
14738;SDS011;7461;52.440;13.540;2023-03-23T05:43:42;3.50;;;3.30;;
14738;SDS011;7461;52.440;13.540;2023-03-23T05:46:09;3.22;;;3.03;;
14738;SDS011;7461;52.440;13.540;2023-03-23T05:48:35;3.25;;;3.05;;
14738;SDS011;7461;52.440;13.540;2023-03-23T05:51:04;2.72;;;2.53;;
14738;SDS011;7461;52.440;13.540;2023-03-23T05:53:31;3.72;;;3.53;;
14738;SDS011;7461;52.440;13.540;2023-03-23T05:55:59;2.50;;;2.40;;
14738;SDS011;7461;52.440;13.540;2023-03-23T05:58:26;3.10;;;2.90;;
14738;SDS011;7461;52.440;13.540;2023-03-23T06:00:53;3.78;;;3.45;;
14738;SDS011;7461;52.440;13.540;2023-03-23T06:03:20;3.45;;;3.03;;
14738;SDS011;7461;52.440;13.540;2023-03-23T06:05:47;3.60;;;2.80;;
14738;SDS011;7461;52.440;13.540;2023-03-23T06:08:16;5.38;;;3.20;;
14738;SDS011;7461;52.440;13.540;2023-03-23T06:10:44;2.38;;;2.28;;
14738;SDS011;7461;52.440;13.540;2023-03-23T06:13:11;3.50;;;3.08;;
14738;SDS011;7461;52.440;13.540;2023-03-23T06:15:37;3.28;;;3.08;;
14738;SDS011;7461;52.440;13.540;2023-03-23T06:18:05;4.13;;;3.10;;
14738;SDS011;7461;52.440;13.540;2023-03-23T06:20:32;2.30;;;2.10;;
14738;SDS011;7461;52.440;13.540;2023-03-23T06:23:00;2.92;;;2.47;;
14738;SDS011;7461;52.440;13.540;2023-03-23T06:25:29;3.67;;;2.72;;
14738;SDS011;7461;52.440;13.540;2023-03-23T06:27:57;2.63;;;2.42;;
14738;SDS011;7461;52.440;13.540;2023-03-23T06:30:24;2.85;;;2.60;;
14738;SDS011;7461;52.440;13.540;2023-03-23T06:32:52;3.38;;;1.98;;
14738;SDS011;7461;52.440;13.540;2023-03-23T06:35:19;4.60;;;3.40;;
14738;SDS011;7461;52.440;13.540;2023-03-23T06:37:46;4.50;;;2.60;;
14738;SDS011;7461;52.440;13.540;2023-03-23T06:40:13;2.60;;;2.40;;
14738;SDS011;7461;52.440;13.540;2023-03-23T06:42:44;3.17;;;2.97;;
14738;SDS011;7461;52.440;13.540;2023-03-23T06:45:11;4.15;;;3.85;;
14738;SDS011;7461;52.440;13.540;2023-03-23T06:47:38;3.50;;;3.20;;
14738;SDS011;7461;52.440;13.540;2023-03-23T06:50:06;4.03;;;3.60;;
14738;SDS011;7461;52.440;13.540;2023-03-23T06:52:33;2.97;;;2.80;;
14738;SDS011;7461;52.440;13.540;2023-03-23T06:55:00;3.10;;;2.90;;
14738;SDS011;7461;52.440;13.540;2023-03-23T06:57:27;4.97;;;3.45;;
14738;SDS011;7461;52.440;13.540;2023-03-23T06:59:55;3.78;;;3.47;;
14738;SDS011;7461;52.440;13.540;2023-03-23T07:02:22;5.50;;;4.57;;
14738;SDS011;7461;52.440;13.540;2023-03-23T07:04:51;3.30;;;3.10;;
14738;SDS011;7461;52.440;13.540;2023-03-23T07:07:19;4.70;;;3.58;;
14738;SDS011;7461;52.440;13.540;2023-03-23T07:09:46;5.13;;;4.75;;
14738;SDS011;7461;52.440;13.540;2023-03-23T07:12:13;6.13;;;3.65;;
14738;SDS011;7461;52.440;13.540;2023-03-23T07:14:40;8.77;;;4.43;;
14738;SDS011;7461;52.440;13.540;2023-03-23T07:17:09;4.40;;;3.78;;
14738;SDS011;7461;52.440;13.540;2023-03-23T07:19:36;4.55;;;4.15;;
14738;SDS011;7461;52.440;13.540;2023-03-23T07:22:04;4.47;;;4.18;;
14738;SDS011;7461;52.440;13.540;2023-03-23T07:24:31;3.85;;;3.55;;
14738;SDS011;7461;52.440;13.540;2023-03-23T07:26:58;4.90;;;3.35;;
14738;SDS011;7461;52.440;13.540;2023-03-23T07:29:25;4.07;;;3.58;;
14738;SDS011;7461;52.440;13.540;2023-03-23T07:31:53;4.07;;;3.72;;
14738;SDS011;7461;52.440;13.540;2023-03-23T07:34:21;3.50;;;3.30;;
14738;SDS011;7461;52.440;13.540;2023-03-23T07:36:48;3.63;;;3.33;;
14738;SDS011;7461;52.440;13.540;2023-03-23T07:39:15;6.90;;;4.63;;
14738;SDS011;7461;52.440;13.540;2023-03-23T07:41:42;5.68;;;4.53;;
14738;SDS011;7461;52.440;13.540;2023-03-23T07:44:09;5.15;;;4.65;;
14738;SDS011;7461;52.440;13.540;2023-03-23T07:46:36;9.23;;;4.05;;
14738;SDS011;7461;52.440;13.540;2023-03-23T07:49:03;4.20;;;3.85;;
14738;SDS011;7461;52.440;13.540;2023-03-23T07:51:32;4.50;;;4.07;;
14738;SDS011;7461;52.440;13.540;2023-03-23T07:53:59;4.72;;;4.07;;
14738;SDS011;7461;52.440;13.540;2023-03-23T07:56:27;4.65;;;4.30;;
14738;SDS011;7461;52.440;13.540;2023-03-23T07:58:55;5.07;;;4.68;;
14738;SDS011;7461;52.440;13.540;2023-03-23T08:01:22;4.97;;;4.60;;
14738;SDS011;7461;52.440;13.540;2023-03-23T08:03:49;5.78;;;5.07;;
14738;SDS011;7461;52.440;13.540;2023-03-23T08:06:17;3.90;;;3.60;;
14738;SDS011;7461;52.440;13.540;2023-03-23T08:08:45;4.22;;;3.92;;
14738;SDS011;7461;52.440;13.540;2023-03-23T08:11:12;5.35;;;4.75;;
14738;SDS011;7461;52.440;13.540;2023-03-23T08:13:40;4.47;;;4.13;;
14738;SDS011;7461;52.440;13.540;2023-03-23T08:16:07;4.43;;;3.55;;
14738;SDS011;7461;52.440;13.540;2023-03-23T08:18:34;4.43;;;3.47;;
14738;SDS011;7461;52.440;13.540;2023-03-23T08:21:02;3.30;;;3.00;;
14738;SDS011;7461;52.440;13.540;2023-03-23T08:23:30;5.03;;;4.38;;
14738;SDS011;7461;52.440;13.540;2023-03-23T08:25:59;3.92;;;3.47;;
14738;SDS011;7461;52.440;13.540;2023-03-23T08:28:26;4.30;;;3.95;;
14738;SDS011;7461;52.440;13.540;2023-03-23T08:30:53;5.43;;;4.95;;
14738;SDS011;7461;52.440;13.540;2023-03-23T08:33:20;5.30;;;4.90;;
14738;SDS011;7461;52.440;13.540;2023-03-23T08:35:53;4.38;;;4.07;;
14738;SDS011;7461;52.440;13.540;2023-03-23T08:38:21;5.68;;;5.18;;
14738;SDS011;7461;52.440;13.540;2023-03-23T08:40:49;4.63;;;4.32;;
14738;SDS011;7461;52.440;13.540;2023-03-23T08:43:18;4.72;;;4.32;;
14738;SDS011;7461;52.440;13.540;2023-03-23T08:45:44;5.20;;;4.05;;
14738;SDS011;7461;52.440;13.540;2023-03-23T08:48:12;5.72;;;4.93;;
14738;SDS011;7461;52.440;13.540;2023-03-23T08:50:40;5.70;;;5.28;;
14738;SDS011;7461;52.440;13.540;2023-03-23T08:53:07;5.65;;;5.25;;
14738;SDS011;7461;52.440;13.540;2023-03-23T08:55:34;4.13;;;3.72;;
14738;SDS011;7461;52.440;13.540;2023-03-23T08:58:01;3.47;;;3.28;;
14738;SDS011;7461;52.440;13.540;2023-03-23T09:00:30;3.78;;;3.47;;
14738;SDS011;7461;52.440;13.540;2023-03-23T09:02:57;3.63;;;3.35;;
14738;SDS011;7461;52.440;13.540;2023-03-23T09:05:25;3.85;;;3.65;;
14738;SDS011;7461;52.440;13.540;2023-03-23T09:07:55;4.45;;;3.83;;
14738;SDS011;7461;52.440;13.540;2023-03-23T09:10:24;3.25;;;3.00;;
14738;SDS011;7461;52.440;13.540;2023-03-23T09:12:52;4.20;;;3.88;;
14738;SDS011;7461;52.440;13.540;2023-03-23T09:15:21;4.43;;;4.07;;
14738;SDS011;7461;52.440;13.540;2023-03-23T09:17:50;3.90;;;3.70;;
14738;SDS011;7461;52.440;13.540;2023-03-23T09:20:20;4.47;;;4.15;;
14738;SDS011;7461;52.440;13.540;2023-03-23T09:22:49;4.43;;;4.18;;
14738;SDS011;7461;52.440;13.540;2023-03-23T09:25:19;5.65;;;4.28;;
14738;SDS011;7461;52.440;13.540;2023-03-23T09:27:50;4.45;;;4.15;;
14738;SDS011;7461;52.440;13.540;2023-03-23T09:30:21;4.78;;;4.38;;
14738;SDS011;7461;52.440;13.540;2023-03-23T09:32:50;5.32;;;4.88;;
14738;SDS011;7461;52.440;13.540;2023-03-23T09:35:17;5.82;;;4.63;;
14738;SDS011;7461;52.440;13.540;2023-03-23T09:37:46;4.63;;;4.30;;
14738;SDS011;7461;52.440;13.540;2023-03-23T09:40:15;3.83;;;3.58;;
14738;SDS011;7461;52.440;13.540;2023-03-23T09:42:48;4.00;;;3.70;;
14738;SDS011;7461;52.440;13.540;2023-03-23T09:45:24;4.40;;;3.97;;
14738;SDS011;7461;52.440;13.540;2023-03-23T09:48:05;3.92;;;3.42;;
14738;SDS011;7461;52.440;13.540;2023-03-23T09:50:47;3.58;;;3.38;;
14738;SDS011;7461;52.440;13.540;2023-03-23T09:53:19;3.08;;;2.97;;
14738;SDS011;7461;52.440;13.540;2023-03-23T09:55:48;6.47;;;4.10;;
14738;SDS011;7461;52.440;13.540;2023-03-23T09:58:17;3.60;;;3.30;;
14738;SDS011;7461;52.440;13.540;2023-03-23T10:00:51;2.72;;;2.45;;
14738;SDS011;7461;52.440;13.540;2023-03-23T10:03:24;2.75;;;2.58;;
14738;SDS011;7461;52.440;13.540;2023-03-23T10:05:55;2.70;;;2.50;;
14738;SDS011;7461;52.440;13.540;2023-03-23T10:08:23;2.42;;;2.22;;
14738;SDS011;7461;52.440;13.540;2023-03-23T10:10:57;2.75;;;2.55;;
14738;SDS011;7461;52.440;13.540;2023-03-23T10:13:32;2.90;;;2.28;;
14738;SDS011;7461;52.440;13.540;2023-03-23T10:16:09;2.55;;;2.35;;
14738;SDS011;7461;52.440;13.540;2023-03-23T10:18:41;2.00;;;1.90;;
14738;SDS011;7461;52.440;13.540;2023-03-23T10:21:11;2.38;;;2.28;;
14738;SDS011;7461;52.440;13.540;2023-03-23T10:23:48;2.20;;;2.10;;
14738;SDS011;7461;52.440;13.540;2023-03-23T10:26:32;2.17;;;2.08;;
14738;SDS011;7461;52.440;13.540;2023-03-23T10:29:08;1.90;;;1.80;;
14738;SDS011;7461;52.440;13.540;2023-03-23T10:31:43;2.00;;;1.90;;
14738;SDS011;7461;52.440;13.540;2023-03-23T10:34:17;2.10;;;1.95;;
14738;SDS011;7461;52.440;13.540;2023-03-23T10:37:01;1.88;;;1.77;;
14738;SDS011;7461;52.440;13.540;2023-03-23T10:39:32;2.33;;;2.22;;
14738;SDS011;7461;52.440;13.540;2023-03-23T10:42:07;1.70;;;1.60;;
14738;SDS011;7461;52.440;13.540;2023-03-23T10:44:35;1.92;;;1.83;;
14738;SDS011;7461;52.440;13.540;2023-03-23T10:47:04;2.05;;;1.85;;
14738;SDS011;7461;52.440;13.540;2023-03-23T10:49:37;1.92;;;1.83;;
14738;SDS011;7461;52.440;13.540;2023-03-23T10:52:11;2.70;;;2.50;;
14738;SDS011;7461;52.440;13.540;2023-03-23T10:54:46;2.25;;;2.05;;
14738;SDS011;7461;52.440;13.540;2023-03-23T10:57:20;2.17;;;2.08;;
14738;SDS011;7461;52.440;13.540;2023-03-23T10:59:49;2.50;;;2.22;;
14738;SDS011;7461;52.440;13.540;2023-03-23T11:02:17;3.17;;;2.88;;
14738;SDS011;7461;52.440;13.540;2023-03-23T11:04:53;1.98;;;1.88;;
14738;SDS011;7461;52.440;13.540;2023-03-23T11:07:25;2.25;;;2.15;;
14738;SDS011;7461;52.440;13.540;2023-03-23T11:10:03;3.42;;;3.10;;
14738;SDS011;7461;52.440;13.540;2023-03-23T11:12:33;3.38;;;3.08;;
14738;SDS011;7461;52.440;13.540;2023-03-23T11:15:20;2.45;;;2.25;;
14738;SDS011;7461;52.440;13.540;2023-03-23T11:17:58;2.25;;;2.05;;
14738;SDS011;7461;52.440;13.540;2023-03-23T11:20:33;2.65;;;2.45;;
14738;SDS011;7461;52.440;13.540;2023-03-23T11:23:08;2.80;;;2.55;;
14738;SDS011;7461;52.440;13.540;2023-03-23T11:25:50;2.22;;;2.08;;
14738;SDS011;7461;52.440;13.540;2023-03-23T11:28:20;2.15;;;1.92;;
14738;SDS011;7461;52.440;13.540;2023-03-23T11:30:52;2.10;;;2.00;;
14738;SDS011;7461;52.440;13.540;2023-03-23T11:39:25;2.17;;;2.05;;
14738;SDS011;7461;52.440;13.540;2023-03-23T11:42:18;1.83;;;1.73;;
14738;SDS011;7461;52.440;13.540;2023-03-23T11:44:47;2.63;;;2.42;;
14738;SDS011;7461;52.440;13.540;2023-03-23T11:47:17;1.80;;;1.70;;
14738;SDS011;7461;52.440;13.540;2023-03-23T11:49:50;3.50;;;2.45;;
14738;SDS011;7461;52.440;13.540;2023-03-23T11:52:29;1.83;;;1.73;;
14738;SDS011;7461;52.440;13.540;2023-03-23T11:55:03;2.15;;;2.05;;
14738;SDS011;7461;52.440;13.540;2023-03-23T11:57:40;2.60;;;2.35;;
14738;SDS011;7461;52.440;13.540;2023-03-23T12:00:15;2.17;;;2.08;;
14738;SDS011;7461;52.440;13.540;2023-03-23T12:02:46;2.13;;;1.90;;
14738;SDS011;7461;52.440;13.540;2023-03-23T12:05:38;2.75;;;2.17;;
14738;SDS011;7461;52.440;13.540;2023-03-23T12:08:19;4.57;;;2.05;;
14738;SDS011;7461;52.440;13.540;2023-03-23T12:10:58;1.83;;;1.75;;
14738;SDS011;7461;52.440;13.540;2023-03-23T12:13:46;2.80;;;2.47;;
14738;SDS011;7461;52.440;13.540;2023-03-23T12:16:23;2.25;;;2.05;;
14738;SDS011;7461;52.440;13.540;2023-03-23T12:21:58;1.83;;;1.73;;
14738;SDS011;7461;52.440;13.540;2023-03-23T12:24:41;1.83;;;1.73;;
14738;SDS011;7461;52.440;13.540;2023-03-23T12:27:41;2.90;;;2.70;;
14738;SDS011;7461;52.440;13.540;2023-03-23T12:30:55;2.55;;;2.35;;
14738;SDS011;7461;52.440;13.540;2023-03-23T12:34:09;2.22;;;2.00;;
14738;SDS011;7461;52.440;13.540;2023-03-23T12:36:51;2.38;;;2.25;;
14738;SDS011;7461;52.440;13.540;2023-03-23T12:43:13;1.95;;;1.85;;
14738;SDS011;7461;52.440;13.540;2023-03-23T12:49:04;3.20;;;2.90;;
14738;SDS011;7461;52.440;13.540;2023-03-23T12:51:39;2.38;;;2.13;;
14738;SDS011;7461;52.440;13.540;2023-03-23T12:54:16;2.83;;;2.63;;
14738;SDS011;7461;52.440;13.540;2023-03-23T12:56:52;3.03;;;2.83;;
14738;SDS011;7461;52.440;13.540;2023-03-23T12:59:26;2.22;;;1.63;;
14738;SDS011;7461;52.440;13.540;2023-03-23T13:02:23;2.20;;;2.10;;
14738;SDS011;7461;52.440;13.540;2023-03-23T13:05:00;2.22;;;2.13;;
14738;SDS011;7461;52.440;13.540;2023-03-23T13:07:45;2.38;;;1.83;;
14738;SDS011;7461;52.440;13.540;2023-03-23T13:10:17;2.85;;;2.55;;
14738;SDS011;7461;52.440;13.540;2023-03-23T13:13:13;2.20;;;2.10;;
14738;SDS011;7461;52.440;13.540;2023-03-23T13:15:54;2.92;;;2.70;;
14738;SDS011;7461;52.440;13.540;2023-03-23T13:18:29;2.45;;;2.05;;
14738;SDS011;7461;52.440;13.540;2023-03-23T13:21:09;2.05;;;1.85;;
14738;SDS011;7461;52.440;13.540;2023-03-23T13:27:22;2.30;;;2.15;;
14738;SDS011;7461;52.440;13.540;2023-03-23T13:30:26;3.17;;;2.40;;
14738;SDS011;7461;52.440;13.540;2023-03-23T13:43:25;2.35;;;1.92;;
14738;SDS011;7461;52.440;13.540;2023-03-23T13:45:53;5.53;;;2.63;;
14738;SDS011;7461;52.440;13.540;2023-03-23T13:48:23;2.50;;;2.30;;
14738;SDS011;7461;52.440;13.540;2023-03-23T13:50:54;4.72;;;2.63;;
14738;SDS011;7461;52.440;13.540;2023-03-23T13:53:24;2.83;;;2.58;;
14738;SDS011;7461;52.440;13.540;2023-03-23T13:56:05;3.05;;;2.08;;
14738;SDS011;7461;52.440;13.540;2023-03-23T13:58:43;3.08;;;2.35;;
14738;SDS011;7461;52.440;13.540;2023-03-23T14:01:13;2.90;;;2.70;;
14738;SDS011;7461;52.440;13.540;2023-03-23T14:03:43;2.38;;;2.28;;
14738;SDS011;7461;52.440;13.540;2023-03-23T14:06:17;2.47;;;1.92;;
14738;SDS011;7461;52.440;13.540;2023-03-23T14:08:48;3.65;;;2.25;;
14738;SDS011;7461;52.440;13.540;2023-03-23T14:11:30;4.03;;;2.20;;
14738;SDS011;7461;52.440;13.540;2023-03-23T14:14:07;3.60;;;2.83;;
14738;SDS011;7461;52.440;13.540;2023-03-23T14:16:41;3.22;;;2.90;;
14738;SDS011;7461;52.440;13.540;2023-03-23T14:19:17;3.10;;;2.50;;
14738;SDS011;7461;52.440;13.540;2023-03-23T14:21:52;1.95;;;1.83;;
14738;SDS011;7461;52.440;13.540;2023-03-23T14:24:22;3.42;;;3.13;;
14738;SDS011;7461;52.440;13.540;2023-03-23T14:26:51;5.15;;;3.25;;
14738;SDS011;7461;52.440;13.540;2023-03-23T14:29:27;4.43;;;4.05;;
14738;SDS011;7461;52.440;13.540;2023-03-23T14:31:55;3.72;;;3.35;;
14738;SDS011;7461;52.440;13.540;2023-03-23T14:37:46;2.60;;;2.40;;
14738;SDS011;7461;52.440;13.540;2023-03-23T14:40:15;1.85;;;1.75;;
14738;SDS011;7461;52.440;13.540;2023-03-23T14:42:43;2.92;;;2.63;;
14738;SDS011;7461;52.440;13.540;2023-03-23T14:45:12;2.88;;;2.65;;
14738;SDS011;7461;52.440;13.540;2023-03-23T14:47:42;4.22;;;2.88;;
14738;SDS011;7461;52.440;13.540;2023-03-23T14:50:25;3.92;;;3.53;;
14738;SDS011;7461;52.440;13.540;2023-03-23T14:53:07;2.88;;;1.85;;
14738;SDS011;7461;52.440;13.540;2023-03-23T14:55:41;2.92;;;2.72;;
14738;SDS011;7461;52.440;13.540;2023-03-23T14:58:12;2.80;;;2.55;;
14738;SDS011;7461;52.440;13.540;2023-03-23T15:00:41;3.60;;;2.60;;
14738;SDS011;7461;52.440;13.540;2023-03-23T15:03:12;2.78;;;2.30;;
14738;SDS011;7461;52.440;13.540;2023-03-23T15:05:43;2.70;;;2.50;;
14738;SDS011;7461;52.440;13.540;2023-03-23T15:08:14;2.58;;;2.38;;
14738;SDS011;7461;52.440;13.540;2023-03-23T15:10:51;2.78;;;2.58;;
14738;SDS011;7461;52.440;13.540;2023-03-23T15:13:19;3.53;;;3.13;;
14738;SDS011;7461;52.440;13.540;2023-03-23T15:15:47;3.95;;;3.53;;
14738;SDS011;7461;52.440;13.540;2023-03-23T15:18:22;2.70;;;2.60;;
14738;SDS011;7461;52.440;13.540;2023-03-23T15:20:56;2.47;;;2.35;;
14738;SDS011;7461;52.440;13.540;2023-03-23T15:23:28;2.97;;;2.38;;
14738;SDS011;7461;52.440;13.540;2023-03-23T15:25:56;2.72;;;2.55;;
14738;SDS011;7461;52.440;13.540;2023-03-23T15:28:28;3.53;;;2.95;;
14738;SDS011;7461;52.440;13.540;2023-03-23T15:30:59;2.20;;;2.05;;
14738;SDS011;7461;52.440;13.540;2023-03-23T15:33:33;3.78;;;2.35;;
14738;SDS011;7461;52.440;13.540;2023-03-23T15:36:05;2.92;;;2.10;;
14738;SDS011;7461;52.440;13.540;2023-03-23T15:38:35;2.10;;;1.90;;
14738;SDS011;7461;52.440;13.540;2023-03-23T15:41:03;2.42;;;2.25;;
14738;SDS011;7461;52.440;13.540;2023-03-23T15:43:32;3.30;;;2.95;;
14738;SDS011;7461;52.440;13.540;2023-03-23T15:46:01;3.25;;;3.05;;
14738;SDS011;7461;52.440;13.540;2023-03-23T15:48:30;2.83;;;2.30;;
14738;SDS011;7461;52.440;13.540;2023-03-23T15:50:59;2.40;;;2.20;;